Time;durP1;ratioP1;P1;durP2;ratioP2;P2;SDS_P1;SDS_P2;PMS_P1;PMS_P2;Temp;Humidity;BMP_temperature;BMP_pressure;BME280_temperature;BME280_humidity;BME280_pressure;Samples;Min_cycle;Max_cycle;Signal;HPM_P1;HPM_P2
2023/09/19 00:00:27;;;;;;;;;;;;;;;18.63;44.79;99884.31;4962095;28;97989;-69
2023/09/19 00:02:54;;;;;;;;;;;;;;;18.57;44.70;99880.19;4946095;28;98176;-65
2023/09/19 00:05:23;;;;;;;;;;;;;;;18.50;44.93;99888.88;4929457;28;99182;-69
2023/09/19 00:07:53;;;;;;;;;;;;;;;18.45;44.79;99889.09;4945828;28;98106;-69
2023/09/19 00:10:24;;;;;;;;;;;;;;;18.39;44.99;99880.34;4949293;28;98144;-65
2023/09/19 00:12:53;;;;;;;;;;;;;;;18.35;44.78;99884.88;4930237;28;98348;-65
2023/09/19 00:15:20;;;;;;;;;;;;;;;18.30;44.68;99882.31;4948307;28;100524;-69
2023/09/19 00:17:47;;;;;;;;;;;;;;;18.27;44.88;99880.25;4962981;28;99423;-64
2023/09/19 00:20:17;;;;;;;;;;;;;;;18.24;44.97;99875.47;4959601;28;98061;-64
2023/09/19 00:22:43;;;;;;;;;;;;;;;18.22;44.84;99880.44;4948727;28;97967;-64
2023/09/19 00:25:10;;;;;;;;;;;;;;;18.23;44.82;99884.78;4974931;27;99499;-69
2023/09/19 00:27:41;;;;;;;;;;;;;;;18.23;44.76;99884.78;4924383;28;97973;-64
2023/09/19 00:30:12;;;;;;;;;;;;;;;18.24;44.77;99877.41;4950505;28;99430;-69
2023/09/19 00:32:39;;;;;;;;;;;;;;;18.24;44.76;99880.94;4948930;28;98020;-69
2023/09/19 00:35:11;;;;;;;;;;;;;;;18.24;44.92;99877.41;4965846;28;98952;-65
2023/09/19 00:37:37;;;;;;;;;;;;;;;18.24;44.71;99874.69;4928483;28;98657;-65
2023/09/19 00:40:12;;;;;;;;;;;;;;;18.20;45.00;99860.91;4955674;28;98143;-65
2023/09/19 00:42:41;;;;;;;;;;;;;;;18.17;44.89;99860.78;4947384;28;97915;-69
2023/09/19 00:45:11;;;;;;;;;;;;;;;18.14;44.76;99863.03;4945894;28;98103;-69
2023/09/19 00:47:42;;;;;;;;;;;;;;;18.14;44.76;99867.69;4945899;28;98485;-69
2023/09/19 00:50:10;;;;;;;;;;;;;;;18.14;44.89;99867.69;4938873;28;103711;-65
2023/09/19 00:52:38;;;;;;;;;;;;;;;18.11;44.98;99866.41;4944752;28;98296;-64
2023/09/19 00:55:05;;;;;;;;;;;;;;;18.09;44.91;99857.78;4934450;28;99187;-69
2023/09/19 00:57:32;;;;;;;;;;;;;;;18.09;44.92;99854.25;4950050;28;99154;-65
2023/09/19 00:59:59;;;;;;;;;;;;;;;18.05;45.00;99848.66;4963716;28;97958;-69
2023/09/19 01:02:29;;;;;;;;;;;;;;;18.02;44.88;99853.97;4958809;28;99993;-64
2023/09/19 01:05:00;;;;;;;;;;;;;;;17.99;44.78;99858.16;4943447;28;99329;-69
2023/09/19 01:07:26;;;;;;;;;;;;;;;17.95;44.80;99859.94;4929601;28;99907;-69
2023/09/19 01:09:54;;;;;;;;;;;;;;;17.93;44.82;99855.97;4948874;28;99324;-65
2023/09/19 01:12:45;;;;;;;;;;;;;;;17.89;44.85;99855.84;4930663;28;98098;-69
2023/09/19 01:15:14;;;;;;;;;;;;;;;17.86;45.05;99854.56;4941124;28;98075;-65
2023/09/19 01:17:50;;;;;;;;;;;;;;;17.86;45.08;99856.50;4961198;28;98087;-64
2023/09/19 01:20:50;;;;;;;;;;;;;;;17.86;45.02;99870.91;4946128;28;98363;-65
2023/09/19 01:23:29;;;;;;;;;;;;;;;17.88;44.94;99865.13;4940109;28;98085;-64
2023/09/19 01:26:08;;;;;;;;;;;;;;;17.88;45.05;99868.66;4962725;28;98245;-65
2023/09/19 01:28:53;;;;;;;;;;;;;;;17.87;44.83;99872.50;4940069;28;98237;-65
2023/09/19 01:31:23;;;;;;;;;;;;;;;17.86;44.94;99868.19;4947308;28;98205;-65
2023/09/19 01:34:00;;;;;;;;;;;;;;;17.84;44.82;99867.72;4968251;28;98102;-69
2023/09/19 01:36:38;;;;;;;;;;;;;;;17.82;44.84;99864.53;4960082;28;98406;-68
2023/09/19 01:39:10;;;;;;;;;;;;;;;17.78;44.89;99870.97;4966279;27;98501;-70
2023/09/19 01:41:48;;;;;;;;;;;;;;;17.74;44.96;99868.06;4967772;28;98230;-69
2023/09/19 01:44:26;;;;;;;;;;;;;;;17.72;45.02;99872.25;4966082;28;99167;-65
2023/09/19 01:46:52;;;;;;;;;;;;;;;17.67;45.12;99875.97;4947563;28;98628;-69
2023/09/19 01:49:33;;;;;;;;;;;;;;;17.67;45.04;99878.69;4982245;27;97889;-69
2023/09/19 01:52:12;;;;;;;;;;;;;;;17.64;45.05;99885.59;4951776;28;98133;-69
2023/09/19 01:54:52;;;;;;;;;;;;;;;17.63;45.12;99880.47;4966656;28;98652;-65
2023/09/19 01:57:29;;;;;;;;;;;;;;;17.60;45.14;99879.19;4949008;28;98297;-69
2023/09/19 02:00:06;;;;;;;;;;;;;;;17.59;45.11;99877.59;4954775;28;98411;-69
2023/09/19 02:02:34;;;;;;;;;;;;;;;17.58;45.12;99881.47;4950180;28;97975;-65
2023/09/19 02:05:01;;;;;;;;;;;;;;;17.55;45.07;99876.66;4973758;27;99425;-66
2023/09/19 02:07:28;;;;;;;;;;;;;;;17.54;45.05;99882.44;4949303;28;98222;-64
2023/09/19 02:09:56;;;;;;;;;;;;;;;17.52;45.20;99881.97;4951590;28;98127;-65
2023/09/19 02:12:22;;;;;;;;;;;;;;;17.50;45.12;99881.50;4932084;28;98690;-69
2023/09/19 02:14:49;;;;;;;;;;;;;;;17.48;45.12;99886.47;4933856;28;98348;-68
2023/09/19 02:17:17;;;;;;;;;;;;;;;17.47;45.18;99882.94;4945372;28;98972;-68
2023/09/19 02:19:43;;;;;;;;;;;;;;;17.47;45.19;99884.88;4976390;27;99063;-64
2023/09/19 02:22:10;;;;;;;;;;;;;;;17.47;45.01;99882.16;4947586;28;99713;-69
2023/09/19 02:24:38;;;;;;;;;;;;;;;17.45;45.21;99871.59;4949791;28;98628;-64
2023/09/19 02:27:05;;;;;;;;;;;;;;;17.43;45.14;99884.72;4947192;28;98427;-69
2023/09/19 02:29:34;;;;;;;;;;;;;;;17.41;45.22;99881.53;4961566;28;98091;-69
2023/09/19 02:32:02;;;;;;;;;;;;;;;17.39;45.14;99881.06;4931326;28;98841;-65
2023/09/19 02:34:29;;;;;;;;;;;;;;;17.39;45.14;99889.22;4964601;28;97866;-69
2023/09/19 02:36:56;;;;;;;;;;;;;;;17.39;45.28;99894.69;4944487;28;98720;-65
2023/09/19 02:39:23;;;;;;;;;;;;;;;17.38;45.11;99895.81;4981349;27;97757;-68
2023/09/19 02:41:50;;;;;;;;;;;;;;;17.38;45.22;99907.50;4959220;28;98064;-69
2023/09/19 02:44:17;;;;;;;;;;;;;;;17.38;45.25;99896.59;4931971;28;100965;-65
2023/09/19 02:46:44;;;;;;;;;;;;;;;17.38;45.23;99902.06;4931118;28;98358;-69
2023/09/19 02:49:10;;;;;;;;;;;;;;;17.41;45.05;99898.69;4943555;28;98576;-69
2023/09/19 02:51:36;;;;;;;;;;;;;;;17.45;45.10;99900.72;4965668;28;98332;-65
2023/09/19 02:54:03;;;;;;;;;;;;;;;17.46;45.23;99900.44;4932724;28;99599;-69
2023/09/19 02:56:30;;;;;;;;;;;;;;;17.50;45.20;99903.28;4963912;28;98308;-69
2023/09/19 02:58:57;;;;;;;;;;;;;;;17.50;45.03;99900.56;4945924;28;99241;-65
2023/09/19 03:01:24;;;;;;;;;;;;;;;17.52;45.22;99904.56;4947366;28;98267;-69
2023/09/19 03:03:50;;;;;;;;;;;;;;;17.52;45.25;99901.81;4946780;28;97974;-68
2023/09/19 03:06:20;;;;;;;;;;;;;;;17.53;44.97;99906.16;4946221;28;97929;-69
2023/09/19 03:08:46;;;;;;;;;;;;;;;17.53;44.90;99906.16;4956734;28;99969;-69
2023/09/19 03:11:15;;;;;;;;;;;;;;;17.54;45.14;99907.75;4945194;28;98107;-69
2023/09/19 03:13:44;;;;;;;;;;;;;;;17.54;45.19;99905.03;4959739;28;98383;-65
2023/09/19 03:16:15;;;;;;;;;;;;;;;17.55;45.26;99911.28;4944444;28;98271;-65
2023/09/19 03:18:42;;;;;;;;;;;;;;;17.55;45.34;99906.63;4929409;28;98354;-69
2023/09/19 03:21:08;;;;;;;;;;;;;;;17.56;45.13;99910.16;4947664;28;98350;-69
2023/09/19 03:23:38;;;;;;;;;;;;;;;17.56;45.20;99908.22;4958507;28;98054;-69
2023/09/19 03:26:05;;;;;;;;;;;;;;;17.59;45.14;99912.22;4959360;28;100103;-65
2023/09/19 03:28:34;;;;;;;;;;;;;;;17.62;45.06;99919.75;4927907;28;98365;-65
2023/09/19 03:31:04;;;;;;;;;;;;;;;17.64;45.22;99917.47;4941710;28;98175;-69
2023/09/19 03:33:32;;;;;;;;;;;;;;;17.67;45.10;99925.00;4960458;28;98977;-69
2023/09/19 03:35:59;;;;;;;;;;;;;;;17.71;45.22;99933.34;4933627;28;98069;-69
2023/09/19 03:38:26;;;;;;;;;;;;;;;17.72;45.08;99932.19;4946760;28;98555;-65
2023/09/19 03:40:53;;;;;;;;;;;;;;;17.75;45.13;99934.31;4973493;27;98239;-69
2023/09/19 03:43:19;;;;;;;;;;;;;;;17.75;45.23;99931.59;4926302;28;98328;-65
2023/09/19 03:45:46;;;;;;;;;;;;;;;17.77;45.26;99930.13;4964824;28;98344;-65
2023/09/19 03:48:12;;;;;;;;;;;;;;;17.78;45.25;99933.66;4944603;28;98253;-69
2023/09/19 03:50:39;;;;;;;;;;;;;;;17.79;45.06;99937.97;4953094;28;98204;-65
2023/09/19 03:53:07;;;;;;;;;;;;;;;17.80;45.13;99945.00;4973319;28;98004;-69
2023/09/19 03:55:35;;;;;;;;;;;;;;;17.78;45.22;99939.09;4954695;28;98454;-69
2023/09/19 03:58:02;;;;;;;;;;;;;;;17.79;45.26;99943.44;4928189;28;98413;-69
2023/09/19 04:00:29;;;;;;;;;;;;;;;17.81;45.38;99946.63;4967751;28;98264;-65
2023/09/19 04:02:56;;;;;;;;;;;;;;;17.80;45.10;99950.47;4982862;27;97971;-65
2023/09/19 04:05:23;;;;;;;;;;;;;;;17.80;45.33;99959.47;4934746;28;98059;-69
2023/09/19 04:07:51;;;;;;;;;;;;;;;17.81;45.13;99961.06;4950432;28;98431;-65
2023/09/19 04:10:18;;;;;;;;;;;;;;;17.83;45.33;99958.00;4945063;28;98018;-65
2023/09/19 04:12:54;;;;;;;;;;;;;;;17.82;45.14;99950.97;4933296;28;98113;-65
2023/09/19 04:15:24;;;;;;;;;;;;;;;17.81;45.19;99952.88;4967172;28;98701;-65
2023/09/19 04:17:51;;;;;;;;;;;;;;;17.81;45.10;99952.09;4933866;28;99262;-65
2023/09/19 04:20:23;;;;;;;;;;;;;;;17.80;45.25;99954.03;4951728;28;98427;-70
2023/09/19 04:22:49;;;;;;;;;;;;;;;17.81;45.09;99957.53;4973309;28;98861;-71
2023/09/19 04:25:16;;;;;;;;;;;;;;;17.80;45.24;99959.47;4951696;28;98472;-69
2023/09/19 04:27:43;;;;;;;;;;;;;;;17.81;45.13;99954.81;4979941;27;104996;-65
2023/09/19 04:30:10;;;;;;;;;;;;;;;17.81;45.25;99965.72;4961897;28;99702;-70
2023/09/19 04:32:39;;;;;;;;;;;;;;;17.80;45.27;99966.81;4960805;28;98168;-70
2023/09/19 04:35:09;;;;;;;;;;;;;;;17.81;45.40;99961.06;4960750;28;98252;-70
2023/09/19 04:37:41;;;;;;;;;;;;;;;17.82;45.14;99956.41;4973244;27;98531;-65
2023/09/19 04:40:12;;;;;;;;;;;;;;;17.83;45.32;99968.91;4942105;28;98426;-70
2023/09/19 04:42:41;;;;;;;;;;;;;;;17.83;45.37;99961.53;4958380;27;100535;-69
2023/09/19 04:45:09;;;;;;;;;;;;;;;17.84;45.34;99963.13;4951155;28;100180;-70
2023/09/19 04:47:38;;;;;;;;;;;;;;;17.85;45.14;99972.91;4941027;28;98571;-66
2023/09/19 04:50:11;;;;;;;;;;;;;;;17.85;45.38;99972.91;4949985;28;98023;-65
2023/09/19 04:52:38;;;;;;;;;;;;;;;17.86;45.33;99977.22;4947806;28;98976;-66
2023/09/19 04:55:05;;;;;;;;;;;;;;;17.87;45.26;99970.63;4931278;28;99579;-65
2023/09/19 04:57:31;;;;;;;;;;;;;;;17.87;45.19;99978.81;4941294;28;98700;-66
2023/09/19 04:59:58;;;;;;;;;;;;;;;17.88;45.27;99976.88;4945085;28;101622;-65
2023/09/19 05:02:24;;;;;;;;;;;;;;;17.89;45.11;99981.22;4947054;28;98249;-66
2023/09/19 05:04:50;;;;;;;;;;;;;;;17.89;45.34;99982.03;4957098;28;99148;-68
2023/09/19 05:07:17;;;;;;;;;;;;;;;17.91;45.32;99977.03;4947087;28;98214;-70
2023/09/19 05:09:45;;;;;;;;;;;;;;;17.93;45.32;99975.94;4930267;28;98119;-65
2023/09/19 05:12:11;;;;;;;;;;;;;;;17.94;45.15;99978.31;4943388;28;99011;-68
2023/09/19 05:14:37;;;;;;;;;;;;;;;17.96;45.21;99984.25;4948995;28;98062;-66
2023/09/19 05:17:04;;;;;;;;;;;;;;;17.97;45.13;99983.13;4950547;28;98019;-65
2023/09/19 05:19:30;;;;;;;;;;;;;;;18.00;45.17;99989.81;4940577;28;98258;-70
2023/09/19 05:21:57;;;;;;;;;;;;;;;18.00;45.32;99987.91;4947585;28;97876;-69
2023/09/19 05:24:23;;;;;;;;;;;;;;;18.05;45.24;100000.56;4943941;28;98545;-70
2023/09/19 05:26:50;;;;;;;;;;;;;;;18.08;45.19;99999.91;4978792;27;97888;-66
2023/09/19 05:29:16;;;;;;;;;;;;;;;18.12;45.17;100004.38;4969713;27;98063;-67
2023/09/19 05:31:43;;;;;;;;;;;;;;;18.16;45.03;100001.78;4937946;28;98079;-70
2023/09/19 05:34:10;;;;;;;;;;;;;;;18.19;44.94;100000.31;4949800;28;97984;-65
2023/09/19 05:36:36;;;;;;;;;;;;;;;18.22;44.91;100010.56;4948453;28;99345;-65
2023/09/19 05:39:03;;;;;;;;;;;;;;;18.26;45.12;100011.53;4930591;28;99335;-66
2023/09/19 05:41:30;;;;;;;;;;;;;;;18.28;45.15;100022.91;4953812;28;98233;-70
2023/09/19 05:43:59;;;;;;;;;;;;;;;18.31;44.95;100025.78;4968719;27;98207;-70
2023/09/19 05:46:29;;;;;;;;;;;;;;;18.35;44.95;100024.00;4953462;28;98386;-70
2023/09/19 05:48:56;;;;;;;;;;;;;;;18.38;44.84;100026.03;4928359;28;98150;-66
2023/09/19 05:51:23;;;;;;;;;;;;;;;18.44;44.80;100023.94;4964116;28;98015;-70
2023/09/19 05:53:50;;;;;;;;;;;;;;;18.50;44.82;100028.06;4963153;28;98271;-70
2023/09/19 05:56:18;;;;;;;;;;;;;;;18.56;44.88;100028.69;4966288;28;98237;-70
2023/09/19 05:58:45;;;;;;;;;;;;;;;18.62;44.74;100036.31;4947996;28;98412;-70
2023/09/19 06:01:12;;;;;;;;;;;;;;;18.69;44.85;100035.81;4928397;28;98176;-70
2023/09/19 06:03:39;;;;;;;;;;;;;;;18.76;44.84;100038.84;4943411;28;98063;-65
2023/09/19 06:06:06;;;;;;;;;;;;;;;18.82;44.64;100032.06;4928139;28;98757;-66
2023/09/19 06:08:33;;;;;;;;;;;;;;;18.87;44.65;100040.06;4950544;28;98213;-66
2023/09/19 06:11:00;;;;;;;;;;;;;;;18.94;44.71;100041.44;4942126;28;98268;-66
2023/09/19 06:13:28;;;;;;;;;;;;;;;18.99;44.66;100046.72;4943084;28;98068;-70
2023/09/19 06:15:56;;;;;;;;;;;;;;;19.05;44.56;100048.88;4944902;28;97937;-70
2023/09/19 06:18:26;;;;;;;;;;;;;;;19.11;44.44;100046.78;4931237;28;98144;-65
2023/09/19 06:20:54;;;;;;;;;;;;;;;19.20;44.61;100052.16;4981951;27;98958;-66
2023/09/19 06:23:21;;;;;;;;;;;;;;;19.26;44.38;100048.09;4929691;28;100451;-70
2023/09/19 06:25:48;;;;;;;;;;;;;;;19.35;44.54;100063.25;4944335;28;98301;-70
2023/09/19 06:28:17;;;;;;;;;;;;;;;19.43;44.29;100067.03;4966848;28;100288;-66
2023/09/19 06:30:44;;;;;;;;;;;;;;;19.52;44.28;100067.75;4952833;28;98236;-65
2023/09/19 06:33:12;;;;;;;;;;;;;;;19.60;44.28;100061.41;4934282;28;98468;-66
2023/09/19 06:35:38;;;;;;;;;;;;;;;19.70;44.25;100057.47;4950709;28;98077;-66
2023/09/19 06:38:06;;;;;;;;;;;;;;;19.78;44.24;100053.84;4970892;28;99720;-70
2023/09/19 06:40:33;;;;;;;;;;;;;;;19.89;44.15;100050.69;4980134;27;98166;-66
2023/09/19 06:43:01;;;;;;;;;;;;;;;19.95;43.93;100065.72;4960127;28;98066;-70
2023/09/19 06:45:28;;;;;;;;;;;;;;;19.99;44.23;100070.19;4966412;28;98513;-66
2023/09/19 06:47:57;;;;;;;;;;;;;;;20.06;44.05;100078.63;4959958;28;121744;-70
2023/09/19 06:50:27;;;;;;;;;;;;;;;20.09;43.98;100086.16;4951266;28;98234;-66
2023/09/19 06:52:54;;;;;;;;;;;;;;;20.14;43.90;100084.34;4967811;28;97883;-66
2023/09/19 06:55:24;;;;;;;;;;;;;;;20.18;44.08;100083.31;4950258;28;98170;-65
2023/09/19 06:57:54;;;;;;;;;;;;;;;20.24;44.06;100094.81;4959821;28;99883;-70
2023/09/19 07:00:24;;;;;;;;;;;;;;;20.28;44.05;100098.50;4944151;28;99746;-65
2023/09/19 07:03:05;;;;;;;;;;;;;;;20.31;43.94;100108.75;4958909;28;98167;-65
2023/09/19 07:05:32;;;;;;;;;;;;;;;20.38;43.98;100108.97;4926727;28;98362;-70
2023/09/19 07:08:00;;;;;;;;;;;;;;;20.50;43.97;100109.00;4935008;28;99317;-65
2023/09/19 07:10:27;;;;;;;;;;;;;;;20.65;43.70;100123.94;4949483;28;97887;-66
2023/09/19 07:13:03;;;;;;;;;;;;;;;20.75;43.63;100126.25;4945869;28;98376;-65
2023/09/19 07:15:30;;;;;;;;;;;;;;;20.96;43.56;100133.50;4947819;28;98296;-70
2023/09/19 07:17:57;;;;;;;;;;;;;;;21.08;43.47;100142.50;4949213;28;98083;-66
2023/09/19 07:20:27;;;;;;;;;;;;;;;21.20;43.39;100143.63;4929058;28;98176;-70
2023/09/19 07:22:56;;;;;;;;;;;;;;;21.31;43.32;100148.28;4962891;28;98412;-70
2023/09/19 07:25:22;;;;;;;;;;;;;;;21.37;43.50;100148.84;4945662;28;98112;-71
2023/09/19 07:27:51;;;;;;;;;;;;;;;21.41;43.28;100148.94;4930785;28;97976;-65
2023/09/19 07:30:18;;;;;;;;;;;;;;;21.50;43.33;100155.91;4962100;27;98300;-70
2023/09/19 07:32:44;;;;;;;;;;;;;;;21.64;43.25;100165.66;4944362;28;97988;-70
2023/09/19 07:35:14;;;;;;;;;;;;;;;21.78;43.28;100157.84;4965087;28;98264;-69
2023/09/19 07:37:41;;;;;;;;;;;;;;;21.90;43.17;100162.47;4951928;28;98876;-65
2023/09/19 07:40:11;;;;;;;;;;;;;;;22.00;43.12;100168.22;4929557;28;98647;-66
2023/09/19 07:42:40;;;;;;;;;;;;;;;22.10;42.89;100163.41;4944344;28;98284;-71
2023/09/19 07:45:07;;;;;;;;;;;;;;;22.19;42.96;100172.28;4927161;28;98252;-70
2023/09/19 07:47:36;;;;;;;;;;;;;;;22.26;43.04;100172.47;4944210;28;97981;-66
2023/09/19 07:50:02;;;;;;;;;;;;;;;22.29;42.99;100171.78;4927670;28;98194;-66
2023/09/19 07:52:29;;;;;;;;;;;;;;;22.36;42.99;100174.72;4960393;28;98181;-66
2023/09/19 07:54:57;;;;;;;;;;;;;;;22.50;42.93;100179.75;4960079;28;98591;-66
2023/09/19 07:57:23;;;;;;;;;;;;;;;22.72;42.50;100181.06;4938023;28;98158;-66
2023/09/19 07:59:49;;;;;;;;;;;;;;;22.94;42.67;100191.44;4944942;28;98021;-66
2023/09/19 08:02:16;;;;;;;;;;;;;;;23.07;42.37;100181.13;4928355;28;100056;-66
2023/09/19 08:04:45;;;;;;;;;;;;;;;23.30;42.10;100181.22;4930826;28;98368;-66
2023/09/19 08:07:13;;;;;;;;;;;;;;;23.52;42.42;100186.03;4942611;28;98281;-66
2023/09/19 08:09:39;;;;;;;;;;;;;;;23.67;42.00;100195.41;4963208;28;98540;-66
2023/09/19 08:12:10;;;;;;;;;;;;;;;23.91;42.06;100196.28;4928095;28;98196;-66
2023/09/19 08:14:37;;;;;;;;;;;;;;;24.35;41.67;100184.88;4942241;28;98163;-71
2023/09/19 08:17:05;;;;;;;;;;;;;;;24.81;41.17;100201.41;4924561;28;98266;-71
2023/09/19 08:19:32;;;;;;;;;;;;;;;25.13;41.15;100204.69;4930034;28;98342;-70
2023/09/19 08:21:58;;;;;;;;;;;;;;;25.42;41.01;100203.09;4965516;28;97909;-70
2023/09/19 08:24:33;;;;;;;;;;;;;;;25.63;41.23;100219.94;4944885;28;98331;-70
2023/09/19 08:26:59;;;;;;;;;;;;;;;25.74;41.24;100211.00;4925971;28;98226;-66
2023/09/19 08:29:27;;;;;;;;;;;;;;;25.79;41.60;100219.78;4944932;28;98151;-66
2023/09/19 08:31:57;;;;;;;;;;;;;;;25.94;41.30;100220.75;4971791;27;98696;-71
2023/09/19 08:34:27;;;;;;;;;;;;;;;26.22;41.16;100220.25;4942253;28;98515;-70
2023/09/19 08:36:57;;;;;;;;;;;;;;;26.09;41.47;100227.19;4948451;28;98376;-66
2023/09/19 08:39:26;;;;;;;;;;;;;;;26.08;41.66;100222.84;4945532;28;98431;-71
2023/09/19 08:42:01;;;;;;;;;;;;;;;26.02;41.69;100219.66;4944759;28;98534;-71
2023/09/19 08:44:31;;;;;;;;;;;;;;;26.48;41.23;100218.53;4960393;28;98401;-71
2023/09/19 08:47:09;;;;;;;;;;;;;;;26.89;40.96;100213.75;4945268;28;98160;-71
2023/09/19 08:50:11;;;;;;;;;;;;;;;27.15;40.81;100235.69;4944245;28;98582;-71
2023/09/19 08:52:41;;;;;;;;;;;;;;;27.95;40.20;100239.69;4942574;28;99158;-64
2023/09/19 08:55:09;;;;;;;;;;;;;;;28.15;40.12;100246.47;4924192;28;98458;-64
2023/09/19 08:57:41;;;;;;;;;;;;;;;28.60;40.08;100235.84;4946146;28;99167;-65
2023/09/19 09:00:12;;;;;;;;;;;;;;;28.48;40.26;100242.59;4944177;28;98604;-70
2023/09/19 09:02:41;;;;;;;;;;;;;;;28.34;40.82;100242.56;4963231;28;98502;-70
2023/09/19 09:05:09;;;;;;;;;;;;;;;27.70;41.18;100236.78;4959266;28;104865;-70
2023/09/19 09:07:36;;;;;;;;;;;;;;;27.48;41.46;100236.69;4966063;28;98378;-65
2023/09/19 09:10:03;;;;;;;;;;;;;;;27.66;40.83;100225.69;4947551;28;98031;-70
2023/09/19 09:12:30;;;;;;;;;;;;;;;27.84;40.99;100231.31;4946761;28;98517;-65
2023/09/19 09:14:57;;;;;;;;;;;;;;;28.50;40.47;100231.13;4931315;28;98032;-65
2023/09/19 09:17:26;;;;;;;;;;;;;;;29.08;39.38;100236.28;4945132;28;99150;-66
2023/09/19 09:19:56;;;;;;;;;;;;;;;29.53;39.29;100231.00;4964902;28;98144;-71
2023/09/19 09:22:23;;;;;;;;;;;;;;;30.16;39.08;100241.50;4944856;28;98380;-66
2023/09/19 09:25:01;;;;;;;;;;;;;;;29.83;39.58;100243.63;4933277;28;97985;-66
2023/09/19 09:27:27;;;;;;;;;;;;;;;29.14;40.32;100233.88;4966684;28;97847;-68
2023/09/19 09:29:56;;;;;;;;;;;;;;;28.31;41.50;100246.09;4945593;28;98217;-66
2023/09/19 09:32:28;;;;;;;;;;;;;;;27.84;41.51;100240.44;4945423;28;98564;-66
2023/09/19 09:35:01;;;;;;;;;;;;;;;27.90;41.33;100240.81;4944599;28;99900;-65
2023/09/19 09:37:29;;;;;;;;;;;;;;;28.61;40.25;100243.81;4950408;28;98234;-70
2023/09/19 09:39:58;;;;;;;;;;;;;;;28.46;40.50;100250.50;4947812;28;99819;-71
2023/09/19 09:42:35;;;;;;;;;;;;;;;28.10;41.32;100247.63;4948111;28;98039;-65
2023/09/19 09:48:03;;;;;;;;;;;;;;;30.05;39.07;100235.97;4949437;28;98178;-66
2023/09/19 09:50:51;;;;;;;;;;;;;;;29.85;39.50;100227.34;4926257;28;98174;-65
2023/09/19 09:53:37;;;;;;;;;;;;;;;30.30;39.23;100238.59;4977347;27;98238;-71
2023/09/19 09:56:09;;;;;;;;;;;;;;;31.23;38.44;100238.66;4964390;28;98167;-66
2023/09/19 09:58:55;;;;;;;;;;;;;;;30.49;39.45;100245.63;4967006;28;98383;-66
2023/09/19 10:01:26;;;;;;;;;;;;;;;29.82;40.09;100247.56;4969183;27;98067;-71
2023/09/19 10:04:00;;;;;;;;;;;;;;;29.33;40.42;100243.75;4932024;28;98109;-71
2023/09/19 10:06:27;;;;;;;;;;;;;;;29.01;40.88;100238.28;4947283;28;99755;-66
2023/09/19 10:11:43;;;;;;;;;;;;;;;30.10;39.38;100254.97;4964300;28;98022;-69
2023/09/19 10:14:10;;;;;;;;;;;;;;;31.25;38.26;100252.94;4950512;28;98345;-70
2023/09/19 10:16:37;;;;;;;;;;;;;;;31.97;37.46;100260.53;4967964;28;97976;-71
2023/09/19 10:19:03;;;;;;;;;;;;;;;32.76;37.37;100276.91;4960049;28;98462;-67
2023/09/19 10:21:30;;;;;;;;;;;;;;;33.04;36.86;100274.88;4949155;28;98236;-66
2023/09/19 10:23:59;;;;;;;;;;;;;;;33.22;37.37;100286.50;4949939;28;98532;-66
2023/09/19 10:26:30;;;;;;;;;;;;;;;32.89;37.82;100265.91;4965963;28;98517;-72
2023/09/19 10:28:59;;;;;;;;;;;;;;;33.49;37.51;100263.31;4926906;28;98369;-72
2023/09/19 10:31:27;;;;;;;;;;;;;;;33.78;37.36;100266.31;4934538;28;98961;-67
2023/09/19 10:33:55;;;;;;;;;;;;;;;32.36;38.88;100268.31;4963725;28;105118;-66
2023/09/19 10:36:23;;;;;;;;;;;;;;;31.15;40.06;100253.03;4951642;28;98427;-71
2023/09/19 10:38:50;;;;;;;;;;;;;;;31.80;38.91;100248.38;4945952;28;99141;-66
2023/09/19 10:41:17;;;;;;;;;;;;;;;32.73;37.73;100258.22;4939984;28;98152;-66
2023/09/19 10:43:44;;;;;;;;;;;;;;;31.81;39.24;100258.31;4960632;28;98126;-71
2023/09/19 10:46:12;;;;;;;;;;;;;;;32.25;38.38;100262.13;4948168;28;98119;-67
2023/09/19 10:48:43;;;;;;;;;;;;;;;32.67;38.17;100266.28;4949955;28;97990;-72
2023/09/19 10:51:25;;;;;;;;;;;;;;;32.46;38.11;100259.06;4950774;28;97967;-67
2023/09/19 10:54:15;;;;;;;;;;;;;;;32.39;38.59;100256.38;4965554;28;98373;-72
2023/09/19 10:56:53;;;;;;;;;;;;;;;31.89;38.80;100259.03;4951934;28;98311;-72
2023/09/19 10:59:21;;;;;;;;;;;;;;;30.84;39.98;100250.16;4947650;28;98270;-72
2023/09/19 11:01:57;;;;;;;;;;;;;;;30.24;40.43;100257.72;4948420;28;98295;-67
2023/09/19 11:04:26;;;;;;;;;;;;;;;30.11;40.32;100247.44;4966610;28;97935;-67
2023/09/19 11:07:10;;;;;;;;;;;;;;;30.46;39.75;100247.25;4946826;28;100448;-72
2023/09/19 11:10:01;;;;;;;;;;;;;;;31.07;39.18;100252.31;4968695;28;98082;-67
2023/09/19 11:12:52;;;;;;;;;;;;;;;30.74;39.25;100245.47;4953651;28;98322;-72
2023/09/19 11:16:03;;;;;;;;;;;;;;;31.10;38.89;100247.94;4962413;28;97904;-67
2023/09/19 11:18:42;;;;;;;;;;;;;;;31.81;38.50;100240.81;4966322;28;98226;-72
2023/09/19 11:21:31;;;;;;;;;;;;;;;32.11;37.94;100249.19;4962059;28;98083;-72
2023/09/19 11:24:30;;;;;;;;;;;;;;;32.41;37.73;100244.78;4978087;27;98061;-72
2023/09/19 11:27:27;;;;;;;;;;;;;;;32.60;37.55;100240.50;4962398;28;98776;-67
2023/09/19 11:30:14;;;;;;;;;;;;;;;32.33;38.13;100237.72;4932925;28;98328;-73
2023/09/19 11:33:20;;;;;;;;;;;;;;;32.58;38.14;100242.91;4957637;28;98325;-74
2023/09/19 11:36:02;;;;;;;;;;;;;;;32.70;38.13;100240.34;4923469;28;98419;-67
2023/09/19 11:38:44;;;;;;;;;;;;;;;32.70;38.15;100223.59;4967257;28;98027;-73
2023/09/19 11:41:25;;;;;;;;;;;;;;;32.47;38.43;100235.53;4964438;28;98958;-67
2023/09/19 11:44:04;;;;;;;;;;;;;;;32.38;38.20;100246.38;4978173;27;99629;-71
2023/09/19 11:46:59;;;;;;;;;;;;;;;32.19;38.35;100256.25;4963222;28;98214;-67
2023/09/19 11:49:30;;;;;;;;;;;;;;;32.23;38.52;100240.25;4948115;28;98083;-67
2023/09/19 11:51:57;;;;;;;;;;;;;;;32.18;38.63;100243.47;4933584;28;98641;-67
2023/09/19 11:54:28;;;;;;;;;;;;;;;32.13;38.58;100240.41;4945108;28;98739;-72
2023/09/19 11:56:54;;;;;;;;;;;;;;;32.05;38.77;100261.22;4964797;28;98869;-67
2023/09/19 11:59:27;;;;;;;;;;;;;;;31.83;38.94;100239.16;4946177;28;98196;-73
2023/09/19 12:01:57;;;;;;;;;;;;;;;31.61;38.90;100229.50;4950978;28;99491;-73
2023/09/19 12:04:43;;;;;;;;;;;;;;;31.47;39.03;100250.75;4947448;28;98688;-68
2023/09/19 12:07:16;;;;;;;;;;;;;;;31.28;39.04;100234.63;4951310;28;98033;-71
2023/09/19 12:09:49;;;;;;;;;;;;;;;31.18;39.10;100243.88;4964671;28;98613;-73
2023/09/19 12:12:27;;;;;;;;;;;;;;;31.22;39.23;100241.84;4952703;28;100149;-67
2023/09/19 12:14:55;;;;;;;;;;;;;;;31.16;39.03;100235.94;4931242;28;99018;-73
2023/09/19 12:17:24;;;;;;;;;;;;;;;31.05;39.10;100246.41;4961461;28;98342;-67
2023/09/19 12:19:55;;;;;;;;;;;;;;;30.93;39.23;100242.13;4922602;28;98205;-67
2023/09/19 12:22:21;;;;;;;;;;;;;;;30.86;39.11;100241.41;4945223;28;98576;-67
2023/09/19 12:24:48;;;;;;;;;;;;;;;30.75;39.21;100244.28;4945440;28;98092;-74
2023/09/19 12:27:14;;;;;;;;;;;;;;;30.65;39.30;100247.88;4962715;28;98454;-67
2023/09/19 12:29:45;;;;;;;;;;;;;;;30.57;39.39;100249.94;4947743;28;98431;-74
2023/09/19 12:32:12;;;;;;;;;;;;;;;30.52;39.23;100245.59;4921425;28;98182;-67
2023/09/19 12:34:44;;;;;;;;;;;;;;;30.45;39.27;100251.22;4929245;28;98342;-68
2023/09/19 12:37:27;;;;;;;;;;;;;;;30.40;39.41;100251.66;4949460;28;98434;-72
2023/09/19 12:39:54;;;;;;;;;;;;;;;30.30;39.39;100235.81;4947726;28;98247;-67
2023/09/19 12:42:28;;;;;;;;;;;;;;;30.22;39.25;100246.22;4924028;28;99031;-67
2023/09/19 12:44:58;;;;;;;;;;;;;;;30.12;39.47;100243.47;4959772;28;98586;-73
2023/09/19 12:47:25;;;;;;;;;;;;;;;29.95;39.32;100240.38;4946218;28;98436;-67
2023/09/19 12:50:18;;;;;;;;;;;;;;;29.91;39.52;100249.91;4962304;28;98386;-67
2023/09/19 12:52:50;;;;;;;;;;;;;;;29.84;39.44;100247.97;4964428;27;98158;-67
2023/09/19 12:55:32;;;;;;;;;;;;;;;29.82;39.63;100250.34;4963238;28;97949;-68
2023/09/19 12:58:09;;;;;;;;;;;;;;;29.77;39.26;100245.22;4953612;28;98677;-73
2023/09/19 13:00:40;;;;;;;;;;;;;;;29.74;39.24;100249.59;4965942;28;99150;-72
2023/09/19 13:03:26;;;;;;;;;;;;;;;29.78;39.27;100249.56;4930514;28;98106;-72